createdAt,value
2023-01-04T00:02:13.675Z,10.90
2023-01-04T00:04:42.355Z,9.43
2023-01-04T00:07:11.037Z,8.82
2023-01-04T00:09:39.714Z,9.45
2023-01-04T00:12:08.880Z,9.27
2023-01-04T00:14:38.841Z,10.20
2023-01-04T00:17:07.838Z,9.77
2023-01-04T00:19:36.555Z,9.50
2023-01-04T00:22:05.216Z,7.47
2023-01-04T00:24:33.924Z,9.48
2023-01-04T00:27:02.584Z,7.43
2023-01-04T00:29:31.124Z,10.05
2023-01-04T00:32:01.140Z,10.43
2023-01-04T00:34:29.922Z,9.52
2023-01-04T00:36:58.574Z,9.40
2023-01-04T00:39:27.465Z,7.25
2023-01-04T00:42:05.243Z,8.70
2023-01-04T00:44:34.650Z,9.07
2023-01-04T00:47:05.369Z,9.50
2023-01-04T00:49:34.046Z,9.77
2023-01-04T00:52:02.645Z,10.10
2023-01-04T00:54:31.301Z,8.57
2023-01-04T00:57:01.435Z,11.38
2023-01-04T00:59:30.068Z,10.65
2023-01-04T01:01:58.720Z,8.93
2023-01-04T01:04:28.904Z,8.98
2023-01-04T01:06:57.524Z,7.00
2023-01-04T01:09:26.037Z,11.20
2023-01-04T01:11:54.943Z,9.48
2023-01-04T01:14:25.630Z,10.77
2023-01-04T01:16:57.733Z,10.45
2023-01-04T01:19:29.527Z,10.98
2023-01-04T01:21:58.557Z,10.73
2023-01-04T01:24:27.389Z,8.82
2023-01-04T01:26:56.009Z,8.05
2023-01-04T01:29:24.839Z,9.43
2023-01-04T01:31:54.503Z,9.52
2023-01-04T01:34:23.337Z,11.32
2023-01-04T01:36:53.206Z,11.30
2023-01-04T01:39:21.950Z,9.23
2023-01-04T01:41:50.602Z,11.73
2023-01-04T01:45:00.316Z,12.93
2023-01-04T01:47:36.715Z,8.93
2023-01-04T01:50:05.928Z,9.55
2023-01-04T01:52:37.840Z,10.57
2023-01-04T01:55:08.794Z,11.68
2023-01-04T01:57:38.953Z,11.95
2023-01-04T02:00:10.178Z,10.23
2023-01-04T02:02:39.636Z,12.00
2023-01-04T02:05:09.059Z,11.30
2023-01-04T02:07:39.128Z,14.07
2023-01-04T02:10:09.146Z,11.90
2023-01-04T02:12:37.764Z,15.45
2023-01-04T02:15:07.971Z,12.02
2023-01-04T02:17:41.808Z,13.82
2023-01-04T02:20:29.505Z,12.60
2023-01-04T02:23:37.529Z,12.13
2023-01-04T02:27:02.007Z,10.73
2023-01-04T02:30:13.698Z,11.52
2023-01-04T02:33:01.223Z,12.80
2023-01-04T02:35:33.336Z,11.65
2023-01-04T02:38:07.304Z,12.15
2023-01-04T02:40:43.411Z,10.82
2023-01-04T02:43:37.043Z,14.02
2023-01-04T02:46:07.968Z,16.55
2023-01-04T02:49:07.446Z,13.27
2023-01-04T02:51:37.354Z,11.20
2023-01-04T02:54:07.805Z,12.48
2023-01-04T02:57:06.294Z,13.23
2023-01-04T02:59:49.745Z,14.18
2023-01-04T03:02:48.865Z,13.10
2023-01-04T03:05:42.476Z,10.77
2023-01-04T03:08:15.857Z,15.13
2023-01-04T03:10:48.337Z,13.45
2023-01-04T03:13:18.969Z,13.43
2023-01-04T03:15:51.254Z,14.63
2023-01-04T03:18:22.395Z,13.45
2023-01-04T03:20:52.495Z,12.73
2023-01-04T03:23:40.237Z,14.85
2023-01-04T03:26:24.738Z,11.60
2023-01-04T03:29:11.092Z,11.07
2023-01-04T03:32:00.533Z,10.30
2023-01-04T03:34:46.384Z,12.85
2023-01-04T03:37:18.434Z,11.70
2023-01-04T03:40:18.490Z,11.35
2023-01-04T03:43:07.857Z,11.70
2023-01-04T03:45:59.159Z,12.45
2023-01-04T03:48:31.704Z,13.77
2023-01-04T03:51:09.542Z,14.10
2023-01-04T03:53:46.883Z,11.07
2023-01-04T03:56:15.539Z,11.05
2023-01-04T03:58:44.051Z,11.98
2023-01-04T04:01:12.814Z,12.68
2023-01-04T04:03:59.105Z,10.40
2023-01-04T04:06:45.446Z,12.25
2023-01-04T04:09:15.468Z,9.40
2023-01-04T04:11:44.101Z,13.85
2023-01-04T04:14:12.625Z,11.32
2023-01-04T04:16:41.386Z,11.48
2023-01-04T04:19:09.978Z,9.52
2023-01-04T04:21:38.763Z,9.48
2023-01-04T04:24:08.307Z,11.70
2023-01-04T04:26:38.260Z,10.38
2023-01-04T04:29:06.757Z,11.80
2023-01-04T04:31:35.502Z,9.30
2023-01-04T04:34:04.163Z,11.02
2023-01-04T04:36:32.936Z,11.73
2023-01-04T04:39:01.530Z,11.52
2023-01-04T04:41:41.983Z,13.25
2023-01-04T04:44:13.478Z,13.25
2023-01-04T04:46:42.376Z,11.48
2023-01-04T04:49:11.240Z,11.68
2023-01-04T04:51:39.959Z,11.23
2023-01-04T04:54:08.910Z,10.90
2023-01-04T04:56:38.038Z,11.73
2023-01-04T04:59:06.925Z,10.98
2023-01-04T05:01:37.158Z,11.73
2023-01-04T05:04:06.421Z,11.32
2023-01-04T05:06:35.135Z,10.38
2023-01-04T05:09:03.661Z,11.32
2023-01-04T05:11:49.938Z,10.80
2023-01-04T05:14:18.483Z,8.80
2023-01-04T05:16:48.824Z,13.32
2023-01-04T05:19:17.486Z,8.20
2023-01-04T05:21:46.252Z,9.57
2023-01-04T05:24:15.130Z,10.38
2023-01-04T05:26:43.763Z,10.63
2023-01-04T05:29:32.328Z,8.52
2023-01-04T05:32:01.590Z,12.38
2023-01-04T05:34:30.178Z,10.15
2023-01-04T05:36:58.840Z,9.70
2023-01-04T05:39:27.455Z,9.45
2023-01-04T05:42:13.711Z,9.25
2023-01-04T05:44:42.418Z,10.63
2023-01-04T05:47:15.159Z,12.07
2023-01-04T05:49:44.195Z,9.25
2023-01-04T05:52:12.933Z,8.38
2023-01-04T05:54:41.519Z,9.82
2023-01-04T05:57:10.453Z,10.65
2023-01-04T05:59:41.880Z,10.27
2023-01-04T06:02:17.791Z,7.80
2023-01-04T06:04:46.903Z,8.82
2023-01-04T06:07:15.870Z,6.90
2023-01-04T06:09:44.606Z,10.63
2023-01-04T06:12:13.437Z,9.73
2023-01-04T06:14:42.476Z,11.73
2023-01-04T06:17:11.030Z,12.98
2023-01-04T06:19:40.996Z,11.70
2023-01-04T06:22:09.684Z,9.43
2023-01-04T06:24:38.262Z,9.68
2023-01-04T06:27:06.765Z,11.57
2023-01-04T06:29:35.547Z,11.43
2023-01-04T06:32:04.215Z,17.67
2023-01-04T06:34:32.921Z,13.77
2023-01-04T06:37:02.957Z,12.02
2023-01-04T06:39:31.622Z,11.50
2023-01-04T06:42:06.378Z,14.85
2023-01-04T06:44:35.804Z,9.90
2023-01-04T06:47:04.373Z,12.82
2023-01-04T06:49:33.126Z,13.10
2023-01-04T06:52:03.186Z,13.02
2023-01-04T06:54:33.898Z,10.48
2023-01-04T06:57:02.538Z,13.00
2023-01-04T06:59:31.143Z,10.88
2023-01-04T07:01:59.930Z,14.32
2023-01-04T07:04:28.827Z,11.35
2023-01-04T07:06:57.916Z,11.75
2023-01-04T07:09:27.946Z,12.05
2023-01-04T07:11:57.978Z,11.57
2023-01-04T07:14:26.791Z,11.95
2023-01-04T07:16:55.796Z,9.40
2023-01-04T07:19:24.406Z,11.68
2023-01-04T07:21:54.095Z,16.25
2023-01-04T07:24:29.601Z,9.95
2023-01-04T07:27:00.733Z,10.95
2023-01-04T07:29:29.229Z,9.25
2023-01-04T07:31:58.189Z,11.32
2023-01-04T07:34:27.378Z,9.48
2023-01-04T07:36:56.183Z,9.95
2023-01-04T07:39:25.142Z,9.77
2023-01-04T07:41:53.958Z,8.45
2023-01-04T07:44:25.728Z,15.43
2023-01-04T07:46:54.755Z,10.15
2023-01-04T07:49:23.592Z,10.75
2023-01-04T07:51:52.397Z,10.13
2023-01-04T07:54:21.041Z,8.98
2023-01-04T07:56:49.747Z,9.35
2023-01-04T07:59:20.751Z,7.13
2023-01-04T08:01:51.185Z,10.35
2023-01-04T08:04:22.963Z,9.98
2023-01-04T08:06:51.792Z,9.93
2023-01-04T08:09:20.643Z,8.35
2023-01-04T08:11:51.827Z,8.98
2023-01-04T08:14:20.463Z,10.02
2023-01-04T08:16:50.528Z,12.10
2023-01-04T08:19:21.571Z,9.48
2023-01-04T08:21:50.462Z,11.40
2023-01-04T08:24:21.199Z,9.63
2023-01-04T08:26:49.743Z,13.38
2023-01-04T08:29:18.325Z,12.23
2023-01-04T08:31:47.017Z,8.85
2023-01-04T08:34:17.137Z,13.38
2023-01-04T08:36:48.621Z,8.55
2023-01-04T08:39:17.438Z,9.23
2023-01-04T08:42:07.493Z,9.38
2023-01-04T08:44:41.412Z,8.07
2023-01-04T08:47:10.093Z,10.18
2023-01-04T08:49:40.183Z,10.07
2023-01-04T08:52:10.318Z,8.43
2023-01-04T08:54:38.981Z,9.85
2023-01-04T08:57:07.811Z,8.13
2023-01-04T08:59:36.575Z,10.07
2023-01-04T09:02:06.409Z,11.20
2023-01-04T09:04:35.281Z,8.82
2023-01-04T09:07:05.507Z,9.73
2023-01-04T09:09:34.432Z,9.13
2023-01-04T09:12:03.038Z,8.10
2023-01-04T09:14:31.874Z,10.48
2023-01-04T09:17:00.436Z,7.22
2023-01-04T09:19:29.048Z,9.15
2023-01-04T09:21:57.816Z,8.40
2023-01-04T09:24:27.846Z,8.88
2023-01-04T09:26:56.395Z,9.15
2023-01-04T09:29:27.417Z,7.22
2023-01-04T09:31:56.120Z,8.98
2023-01-04T09:34:24.849Z,7.00
2023-01-04T09:36:53.444Z,9.23
2023-01-04T09:39:24.286Z,7.45
2023-01-04T09:41:59.071Z,9.68
2023-01-04T09:47:34.581Z,8.68
2023-01-04T09:50:11.844Z,9.57
2023-01-04T09:52:48.181Z,7.50
2023-01-04T09:55:37.566Z,8.23
2023-01-04T09:58:24.826Z,11.70
2023-01-04T10:00:57.047Z,8.63
2023-01-04T10:03:27.189Z,8.32
2023-01-04T10:05:57.323Z,7.90
2023-01-04T10:08:25.964Z,10.88
2023-01-04T10:11:06.072Z,9.65
2023-01-04T10:13:53.714Z,9.63
2023-01-04T10:17:01.788Z,7.43
2023-01-04T10:22:23.536Z,8.75
2023-01-04T10:24:59.487Z,7.68
2023-01-04T10:27:40.848Z,8.73
2023-01-04T10:30:25.099Z,7.60
2023-01-04T10:32:56.763Z,8.73
2023-01-04T10:35:27.299Z,8.82
2023-01-04T10:38:01.668Z,6.95
2023-01-04T10:40:30.901Z,7.68
2023-01-04T10:43:02.751Z,9.27
2023-01-04T10:45:37.402Z,7.93
2023-01-04T10:48:09.912Z,7.05
2023-01-04T10:50:42.129Z,10.13
2023-01-04T10:53:14.545Z,7.53
2023-01-04T10:56:23.158Z,7.30
2023-01-04T10:58:38.348Z,5.93
2023-01-04T11:01:11.582Z,6.53
2023-01-04T11:03:43.353Z,7.82
2023-01-04T11:06:15.929Z,7.30
2023-01-04T11:08:47.423Z,7.50
2023-01-04T11:11:19.434Z,8.23
2023-01-04T11:13:48.157Z,7.53
2023-01-04T11:16:18.287Z,6.90
2023-01-04T11:18:47.174Z,7.68
2023-01-04T11:21:16.160Z,6.03
2023-01-04T11:23:44.866Z,5.72
2023-01-04T11:26:15.181Z,7.55
2023-01-04T11:28:47.780Z,6.05
2023-01-04T11:31:24.187Z,7.45
2023-01-04T11:33:55.149Z,6.63
2023-01-04T11:36:45.137Z,6.25
2023-01-04T11:39:20.443Z,6.05
2023-01-04T11:42:03.339Z,6.45
2023-01-04T11:44:32.968Z,6.82
2023-01-04T11:47:11.733Z,8.70
2023-01-04T11:49:40.247Z,5.82
2023-01-04T11:52:12.235Z,5.78
2023-01-04T11:54:40.802Z,7.82
2023-01-04T11:57:18.700Z,8.98
2023-01-04T11:59:47.365Z,6.47
2023-01-04T12:05:29.005Z,9.77
2023-01-04T12:07:59.568Z,7.57
2023-01-04T12:10:28.977Z,11.63
2023-01-04T12:12:58.322Z,5.50
2023-01-04T12:15:30.788Z,5.72
2023-01-04T12:18:03.832Z,5.78
2023-01-04T12:20:32.591Z,5.25
2023-01-04T12:23:01.104Z,7.65
2023-01-04T12:25:34.309Z,5.30
2023-01-04T12:28:02.970Z,6.75
2023-01-04T12:30:37.462Z,5.13
2023-01-04T12:33:42.809Z,5.32
2023-01-04T12:36:12.163Z,6.45
2023-01-04T12:39:04.750Z,5.70
2023-01-04T12:42:17.922Z,7.30
2023-01-04T12:45:21.219Z,6.85
2023-01-04T12:48:11.515Z,7.50
2023-01-04T12:51:33.650Z,6.30
2023-01-04T12:54:03.945Z,5.60
2023-01-04T12:57:23.839Z,7.28
2023-01-04T12:59:56.851Z,6.97
2023-01-04T13:02:26.593Z,6.38
2023-01-04T13:05:25.695Z,5.55
2023-01-04T13:07:48.884Z,5.53
2023-01-04T13:10:23.436Z,5.90
2023-01-04T13:13:31.387Z,5.20
2023-01-04T13:16:13.263Z,5.40
2023-01-04T13:18:43.328Z,5.57
2023-01-04T13:21:14.236Z,8.57
2023-01-04T13:23:49.769Z,5.03
2023-01-04T13:26:38.870Z,6.10
2023-01-04T13:29:09.965Z,5.07
2023-01-04T13:31:57.963Z,5.43
2023-01-04T13:34:29.218Z,5.32
2023-01-04T13:37:04.751Z,6.63
2023-01-04T13:39:35.089Z,5.03
2023-01-04T13:42:03.730Z,5.00
2023-01-04T13:45:21.494Z,4.97
2023-01-04T13:47:52.108Z,6.53
2023-01-04T13:50:32.731Z,6.05
2023-01-04T13:53:07.678Z,6.18
2023-01-04T13:55:39.191Z,5.85
2023-01-04T13:58:09.116Z,5.28
2023-01-04T14:00:44.848Z,6.43
2023-01-04T14:03:22.687Z,5.03
2023-01-04T14:05:52.554Z,4.20
2023-01-04T14:08:31.257Z,6.13
2023-01-04T14:11:01.199Z,4.40
2023-01-04T14:13:30.035Z,5.72
2023-01-04T14:16:12.308Z,4.28
2023-01-04T14:18:41.245Z,4.60
2023-01-04T14:21:17.372Z,6.55
2023-01-04T14:23:46.315Z,4.20
2023-01-04T14:26:36.138Z,6.72
2023-01-04T14:29:22.968Z,4.32
2023-01-04T14:31:52.413Z,4.72
2023-01-04T14:34:21.010Z,4.18
2023-01-04T14:36:49.588Z,4.50
2023-01-04T14:39:34.031Z,7.68
2023-01-04T14:42:07.073Z,4.68
2023-01-04T14:44:41.261Z,6.82
2023-01-04T14:47:12.915Z,6.18
2023-01-04T14:49:41.782Z,4.93
2023-01-04T14:52:12.507Z,5.70
2023-01-04T14:54:41.241Z,5.20
2023-01-04T14:57:12.295Z,4.18
2023-01-04T14:59:41.193Z,6.13
2023-01-04T15:02:11.372Z,4.43
2023-01-04T15:04:40.203Z,5.95
2023-01-04T15:07:08.866Z,3.90
2023-01-04T15:09:37.470Z,5.55
2023-01-04T15:12:06.848Z,3.83
2023-01-04T15:14:36.911Z,5.10
2023-01-04T15:17:05.566Z,5.30
2023-01-04T15:19:37.685Z,6.93
2023-01-04T15:22:07.123Z,4.13
2023-01-04T15:24:35.719Z,4.50
2023-01-04T15:27:04.402Z,7.07
2023-01-04T15:29:33.114Z,4.65
2023-01-04T15:32:03.307Z,4.18
2023-01-04T15:34:32.021Z,3.60
2023-01-04T15:37:00.788Z,4.35
2023-01-04T15:39:29.493Z,4.47
2023-01-04T15:42:15.759Z,3.92
2023-01-04T15:44:44.827Z,4.25
2023-01-04T15:47:14.801Z,3.90
2023-01-04T15:49:43.429Z,6.13
2023-01-04T15:52:12.066Z,4.30
2023-01-04T15:54:40.599Z,3.83
2023-01-04T15:57:09.209Z,4.80
2023-01-04T15:59:37.885Z,4.28
2023-01-04T16:02:06.763Z,4.03
2023-01-04T16:04:36.982Z,3.63
2023-01-04T16:07:05.797Z,3.78
2023-01-04T16:09:36.564Z,3.63
2023-01-04T16:12:23.611Z,4.38
2023-01-04T16:14:52.537Z,3.70
2023-01-04T16:17:21.140Z,5.82
2023-01-04T16:19:51.015Z,4.30
2023-01-04T16:22:19.655Z,5.30
2023-01-04T16:27:40.269Z,3.65
2023-01-04T16:30:12.039Z,3.65
2023-01-04T16:32:43.465Z,3.67
2023-01-04T16:35:13.487Z,5.78
2023-01-04T16:37:43.126Z,3.88
2023-01-04T16:40:13.703Z,3.90
2023-01-04T16:42:43.099Z,5.70
2023-01-04T16:45:12.980Z,3.53
2023-01-04T16:47:43.185Z,3.67
2023-01-04T16:50:13.296Z,4.45
2023-01-04T16:52:42.126Z,3.75
2023-01-04T16:55:11.939Z,4.97
2023-01-04T16:57:40.723Z,4.07
2023-01-04T17:00:11.414Z,3.80
2023-01-04T17:02:40.362Z,3.50
2023-01-04T17:05:10.139Z,3.63
2023-01-04T17:07:42.477Z,3.90
2023-01-04T17:10:11.802Z,4.00
2023-01-04T17:12:49.235Z,5.40
2023-01-04T17:18:07.586Z,3.58
2023-01-04T17:20:36.254Z,5.28
2023-01-04T17:23:06.409Z,3.67
2023-01-04T17:25:35.199Z,4.03
2023-01-04T17:28:05.140Z,3.83
2023-01-04T17:30:33.836Z,3.42
2023-01-04T17:33:02.477Z,3.72
2023-01-04T17:35:31.337Z,6.15
2023-01-04T17:38:00.424Z,4.22
2023-01-04T17:40:30.691Z,4.85
2023-01-04T17:42:59.780Z,5.20
2023-01-04T17:45:28.657Z,4.30
2023-01-04T17:47:57.428Z,6.43
2023-01-04T17:50:26.113Z,3.58
2023-01-04T17:52:54.635Z,4.35
2023-01-04T17:55:23.438Z,6.43
2023-01-04T17:57:53.450Z,3.55
2023-01-04T18:00:22.437Z,3.58
2023-01-04T18:02:51.136Z,3.60
2023-01-04T18:05:19.995Z,3.53
2023-01-04T18:07:48.683Z,4.30
2023-01-04T18:10:27.165Z,4.03
2023-01-04T18:13:07.992Z,3.70
2023-01-04T18:15:43.908Z,3.50
2023-01-04T18:18:24.171Z,3.92
2023-01-04T18:20:54.083Z,3.30
2023-01-04T18:23:25.677Z,3.10
2023-01-04T18:25:54.921Z,3.75
2023-01-04T18:28:24.852Z,3.88
2023-01-04T18:30:53.883Z,3.90
2023-01-04T18:33:22.654Z,3.25
2023-01-04T18:35:51.291Z,3.33
2023-01-04T18:38:19.967Z,3.63
2023-01-04T18:40:48.663Z,3.55
2023-01-04T18:43:17.304Z,3.33
2023-01-04T18:45:47.491Z,3.70
2023-01-04T18:48:16.309Z,3.40
2023-01-04T18:50:45.336Z,3.20
2023-01-04T18:53:14.617Z,3.10
2023-01-04T18:55:43.455Z,3.45
2023-01-04T18:58:12.204Z,4.10
2023-01-04T19:00:40.813Z,4.10
2023-01-04T19:03:16.396Z,3.20
2023-01-04T19:05:46.931Z,3.42
2023-01-04T19:08:15.623Z,3.38
2023-01-04T19:10:44.332Z,3.60
2023-01-04T19:13:12.955Z,4.95
2023-01-04T19:15:47.772Z,4.03
2023-01-04T19:18:18.103Z,5.43
2023-01-04T19:20:46.908Z,5.50
2023-01-04T19:23:15.684Z,4.25
2023-01-04T19:25:44.437Z,5.85
2023-01-04T19:28:13.325Z,4.85
2023-01-04T19:30:42.315Z,3.47
2023-01-04T19:33:11.558Z,4.78
2023-01-04T19:35:43.836Z,7.18
2023-01-04T19:38:12.763Z,3.40
2023-01-04T19:40:41.549Z,4.97
2023-01-04T19:43:10.333Z,3.53
2023-01-04T19:45:39.434Z,3.05
2023-01-04T19:48:08.637Z,3.03
2023-01-04T19:50:37.231Z,3.92
2023-01-04T19:53:07.179Z,4.78
2023-01-04T19:55:35.891Z,4.68
2023-01-04T19:58:04.472Z,4.13
2023-01-04T20:00:33.112Z,5.90
2023-01-04T20:03:02.011Z,3.78
2023-01-04T20:05:30.498Z,5.28
2023-01-04T20:08:03.133Z,3.95
2023-01-04T20:10:33.095Z,3.20
2023-01-04T20:13:01.466Z,3.55
2023-01-04T20:15:30.384Z,3.50
2023-01-04T20:17:59.104Z,3.45
2023-01-04T20:20:27.682Z,3.85
2023-01-04T20:22:56.550Z,5.10
2023-01-04T20:25:25.145Z,3.45
2023-01-04T20:27:55.238Z,6.57
2023-01-04T20:30:23.900Z,3.45
2023-01-04T20:32:52.701Z,3.75
2023-01-04T20:35:21.341Z,3.60
2023-01-04T20:37:53.800Z,3.65
2023-01-04T20:40:22.472Z,4.93
2023-01-04T20:43:08.516Z,4.03
2023-01-04T20:45:42.446Z,3.33
2023-01-04T20:48:11.336Z,3.28
2023-01-04T20:50:40.142Z,3.50
2023-01-04T20:53:08.880Z,3.88
2023-01-04T20:55:40.347Z,3.53
2023-01-04T20:58:09.540Z,4.53
2023-01-04T21:00:39.934Z,3.47
2023-01-04T21:03:09.989Z,3.10
2023-01-04T21:05:38.617Z,4.97
2023-01-04T21:08:07.300Z,3.30
2023-01-04T21:10:36.046Z,3.08
2023-01-04T21:13:05.141Z,3.13
2023-01-04T21:15:33.782Z,3.20
2023-01-04T21:18:03.882Z,3.25
2023-01-04T21:20:32.675Z,2.80
2023-01-04T21:23:01.380Z,3.15
2023-01-04T21:25:30.012Z,3.05
2023-01-04T21:28:00.810Z,3.03
2023-01-04T21:30:29.463Z,3.00
2023-01-04T21:33:01.916Z,3.53
2023-01-04T21:35:32.068Z,3.20
2023-01-04T21:38:00.629Z,4.25
2023-01-04T21:40:29.239Z,3.35
2023-01-04T21:42:58.545Z,5.40
2023-01-04T21:45:27.333Z,3.15
2023-01-04T21:47:56.519Z,3.50
2023-01-04T21:50:30.656Z,6.32
2023-01-04T21:53:00.656Z,2.83
2023-01-04T21:55:34.554Z,3.13
2023-01-04T21:58:03.990Z,3.05
2023-01-04T22:00:32.749Z,5.43
2023-01-04T22:03:01.490Z,3.25
2023-01-04T22:05:30.626Z,3.08
2023-01-04T22:08:00.850Z,2.90
2023-01-04T22:10:29.507Z,2.75
2023-01-04T22:12:58.052Z,3.78
2023-01-04T22:15:26.884Z,2.70
2023-01-04T22:17:55.641Z,2.65
2023-01-04T22:20:24.400Z,2.60
2023-01-04T22:22:53.190Z,4.22
2023-01-04T22:25:23.269Z,2.75
2023-01-04T22:27:52.083Z,4.25
2023-01-04T22:30:20.951Z,3.80
2023-01-04T22:32:49.922Z,7.20
2023-01-04T22:35:19.220Z,7.55
2023-01-04T22:37:48.725Z,8.90
2023-01-04T22:40:17.414Z,4.57
2023-01-04T22:42:47.491Z,6.97
2023-01-04T22:45:16.367Z,5.95
2023-01-04T22:47:44.988Z,8.95
2023-01-04T22:50:13.723Z,5.40
2023-01-04T22:52:47.364Z,6.13
2023-01-04T22:55:19.799Z,4.95
2023-01-04T22:57:50.157Z,6.03
2023-01-04T23:00:18.825Z,5.55
2023-01-04T23:02:47.696Z,7.28
2023-01-04T23:05:16.834Z,6.30
2023-01-04T23:07:45.625Z,5.35
2023-01-04T23:10:14.472Z,5.60
2023-01-04T23:12:43.212Z,6.30
2023-01-04T23:15:13.979Z,5.53
2023-01-04T23:17:43.022Z,4.55
2023-01-04T23:20:18.544Z,6.93
2023-01-04T23:22:49.276Z,7.03
2023-01-04T23:25:18.170Z,5.60
2023-01-04T23:27:46.823Z,5.57
2023-01-04T23:30:17.709Z,4.43
2023-01-04T23:32:47.551Z,4.10
2023-01-04T23:35:17.307Z,6.32
2023-01-04T23:37:46.150Z,7.25
2023-01-04T23:40:14.878Z,9.15
2023-01-04T23:42:43.650Z,9.57
2023-01-04T23:45:12.556Z,4.95
2023-01-04T23:47:42.526Z,4.97
2023-01-04T23:50:11.625Z,4.32
2023-01-04T23:52:40.462Z,7.00
2023-01-04T23:55:09.940Z,4.10
2023-01-04T23:57:38.679Z,9.18
